createdAt,value
2023-03-19T00:00:52.148Z,10.65
2023-03-19T00:03:19.984Z,12.25
2023-03-19T00:05:54.548Z,11.40
2023-03-19T00:08:22.863Z,11.25
2023-03-19T00:10:51.135Z,11.68
2023-03-19T00:13:20.115Z,11.77
2023-03-19T00:15:47.899Z,11.93
2023-03-19T00:18:16.154Z,11.85
2023-03-19T00:20:44.992Z,11.38
2023-03-19T00:23:12.680Z,11.88
2023-03-19T00:25:40.382Z,11.00
2023-03-19T00:28:08.084Z,10.63
2023-03-19T00:30:36.389Z,11.13
2023-03-19T00:33:04.257Z,11.18
2023-03-19T00:35:32.777Z,11.73
2023-03-19T00:38:00.704Z,10.98
2023-03-19T00:40:28.441Z,11.30
2023-03-19T00:42:56.334Z,10.52
2023-03-19T00:45:23.999Z,10.15
2023-03-19T00:47:51.665Z,11.27
2023-03-19T00:50:19.414Z,11.35
2023-03-19T00:52:47.178Z,11.40
2023-03-19T00:55:14.843Z,10.95
2023-03-19T00:57:42.793Z,10.93
2023-03-19T01:00:11.355Z,11.88
2023-03-19T01:02:39.297Z,11.63
2023-03-19T01:05:08.214Z,11.13
2023-03-19T01:07:35.901Z,12.15
2023-03-19T01:10:03.822Z,11.70
2023-03-19T01:12:31.568Z,10.98
2023-03-19T01:14:59.789Z,11.45
2023-03-19T01:17:27.679Z,12.13
2023-03-19T01:19:55.460Z,12.27
2023-03-19T01:22:23.241Z,12.95
2023-03-19T01:24:56.241Z,12.30
2023-03-19T01:27:24.159Z,13.20
2023-03-19T01:29:52.223Z,13.88
2023-03-19T01:32:46.410Z,11.68
2023-03-19T01:35:31.673Z,11.82
2023-03-19T01:37:59.485Z,12.68
2023-03-19T01:40:27.208Z,11.90
2023-03-19T01:43:14.846Z,12.40
2023-03-19T01:45:57.064Z,12.70
2023-03-19T01:48:59.860Z,12.60
2023-03-19T01:51:38.003Z,12.88
2023-03-19T01:54:17.144Z,12.80
2023-03-19T01:56:59.575Z,12.25
2023-03-19T01:59:54.875Z,13.48
2023-03-19T02:02:36.813Z,13.30
2023-03-19T02:05:25.355Z,12.50
2023-03-19T02:08:00.210Z,12.63
2023-03-19T02:10:30.275Z,12.48
2023-03-19T02:12:58.122Z,11.82
2023-03-19T02:15:26.131Z,12.05
2023-03-19T02:17:54.554Z,12.27
2023-03-19T02:20:43.968Z,12.13
2023-03-19T02:24:00.783Z,12.45
2023-03-19T02:26:52.105Z,12.13
2023-03-19T02:29:19.886Z,12.93
2023-03-19T02:31:48.072Z,13.67
2023-03-19T02:34:21.825Z,13.87
2023-03-19T02:37:13.034Z,15.77
2023-03-19T02:40:04.497Z,15.23
2023-03-19T02:42:32.240Z,13.90
2023-03-19T02:45:00.071Z,13.67
2023-03-19T02:47:28.475Z,14.53
2023-03-19T02:49:56.380Z,14.13
2023-03-19T02:52:24.189Z,15.57
2023-03-19T02:54:51.902Z,14.50
2023-03-19T02:57:19.668Z,14.50
2023-03-19T02:59:47.303Z,14.55
2023-03-19T03:02:15.328Z,14.47
2023-03-19T03:04:43.150Z,14.53
2023-03-19T03:07:11.453Z,14.03
2023-03-19T03:09:39.281Z,14.37
2023-03-19T03:12:08.343Z,14.83
2023-03-19T03:14:36.115Z,13.43
2023-03-19T03:17:04.137Z,14.05
2023-03-19T03:19:32.054Z,14.68
2023-03-19T03:22:01.004Z,13.48
2023-03-19T03:24:28.868Z,13.30
2023-03-19T03:26:56.598Z,12.73
2023-03-19T03:29:24.241Z,13.63
2023-03-19T03:31:52.293Z,13.48
2023-03-19T03:34:20.185Z,14.18
2023-03-19T03:36:47.916Z,13.70
2023-03-19T03:39:16.148Z,13.95
2023-03-19T03:41:43.914Z,13.95
2023-03-19T03:44:11.847Z,14.30
2023-03-19T03:46:43.332Z,14.40
2023-03-19T03:49:11.375Z,14.02
2023-03-19T03:51:39.102Z,14.20
2023-03-19T03:54:07.453Z,15.10
2023-03-19T03:56:35.640Z,15.20
2023-03-19T03:59:03.891Z,15.00
2023-03-19T04:01:32.427Z,15.57
2023-03-19T04:04:00.335Z,15.02
2023-03-19T04:06:28.810Z,15.65
2023-03-19T04:09:13.445Z,16.05
2023-03-19T04:11:41.573Z,16.08
2023-03-19T04:14:09.792Z,16.17
2023-03-19T04:16:39.327Z,16.67
2023-03-19T04:19:07.702Z,16.27
2023-03-19T04:21:35.555Z,16.60
2023-03-19T04:24:04.079Z,15.73
2023-03-19T04:26:31.743Z,14.60
2023-03-19T04:28:59.562Z,14.73
2023-03-19T04:31:28.347Z,16.23
2023-03-19T04:33:56.125Z,16.53
2023-03-19T04:36:24.140Z,15.02
2023-03-19T04:38:52.614Z,15.18
2023-03-19T04:41:21.367Z,15.98
2023-03-19T04:44:03.447Z,14.77
2023-03-19T04:46:31.685Z,15.57
2023-03-19T04:48:59.809Z,15.80
2023-03-19T04:51:28.639Z,14.30
2023-03-19T04:53:57.138Z,14.98
2023-03-19T04:56:24.881Z,15.85
2023-03-19T04:58:52.604Z,15.95
2023-03-19T05:01:20.663Z,14.10
2023-03-19T05:04:00.377Z,14.90
2023-03-19T05:06:28.941Z,14.48
2023-03-19T05:08:57.070Z,15.02
2023-03-19T05:11:25.204Z,15.18
2023-03-19T05:14:05.648Z,15.93
2023-03-19T05:16:48.746Z,14.65
2023-03-19T05:19:16.620Z,14.93
2023-03-19T05:21:44.530Z,14.93
2023-03-19T05:24:13.904Z,14.77
2023-03-19T05:26:41.898Z,15.73
2023-03-19T05:29:10.973Z,15.25
2023-03-19T05:31:56.736Z,15.85
2023-03-19T05:34:24.501Z,14.43
2023-03-19T05:36:52.624Z,15.83
2023-03-19T05:39:20.914Z,14.33
2023-03-19T05:41:49.224Z,15.00
2023-03-19T05:44:21.266Z,15.73
2023-03-19T05:47:15.097Z,13.57
2023-03-19T05:49:48.103Z,15.15
2023-03-19T05:52:16.410Z,14.05
2023-03-19T05:54:44.284Z,15.20
2023-03-19T05:57:23.030Z,13.93
2023-03-19T06:00:12.455Z,13.65
2023-03-19T06:02:40.576Z,13.95
2023-03-19T06:05:37.482Z,13.30
2023-03-19T06:08:37.248Z,13.43
2023-03-19T06:11:18.207Z,12.85
2023-03-19T06:13:52.234Z,12.98
2023-03-19T06:16:20.480Z,12.82
2023-03-19T06:18:56.184Z,12.93
2023-03-19T06:21:29.475Z,13.68
2023-03-19T06:23:59.853Z,13.75
2023-03-19T06:26:34.300Z,12.82
2023-03-19T06:29:06.344Z,14.43
2023-03-19T06:31:34.297Z,14.00
2023-03-19T06:34:14.670Z,14.15
2023-03-19T06:36:43.983Z,14.48
2023-03-19T06:39:13.805Z,14.52
2023-03-19T06:41:41.602Z,13.77
2023-03-19T06:44:17.169Z,13.70
2023-03-19T06:46:45.011Z,13.80
2023-03-19T06:49:12.728Z,14.38
2023-03-19T06:51:40.694Z,14.23
2023-03-19T06:54:08.320Z,14.23
2023-03-19T06:56:35.997Z,14.27
2023-03-19T06:59:03.691Z,14.45
2023-03-19T07:01:31.443Z,14.30
2023-03-19T07:03:59.158Z,15.23
2023-03-19T07:06:26.885Z,14.02
2023-03-19T07:08:54.836Z,15.90
2023-03-19T07:11:22.628Z,16.13
2023-03-19T07:13:50.414Z,15.10
2023-03-19T07:16:18.220Z,15.40
2023-03-19T07:18:45.869Z,14.82
2023-03-19T07:21:13.526Z,15.70
2023-03-19T07:23:41.575Z,15.25
2023-03-19T07:26:09.287Z,14.77
2023-03-19T07:28:36.994Z,14.32
2023-03-19T07:31:05.652Z,14.18
2023-03-19T07:33:33.286Z,14.27
2023-03-19T07:36:01.037Z,13.40
2023-03-19T07:38:28.805Z,13.88
2023-03-19T07:41:02.394Z,14.45
2023-03-19T07:43:31.346Z,13.65
2023-03-19T07:46:00.064Z,12.50
2023-03-19T07:48:27.851Z,13.55
2023-03-19T07:50:55.638Z,13.00
2023-03-19T07:53:23.508Z,13.20
2023-03-19T07:55:51.363Z,11.98
2023-03-19T07:58:19.238Z,12.75
2023-03-19T08:00:47.390Z,12.50
2023-03-19T08:03:15.898Z,12.70
2023-03-19T08:05:43.600Z,11.10
2023-03-19T08:08:11.572Z,11.70
2023-03-19T08:10:39.407Z,11.90
2023-03-19T08:13:07.171Z,11.43
2023-03-19T08:15:34.971Z,11.45
2023-03-19T08:18:05.029Z,11.00
2023-03-19T08:20:33.563Z,10.52
2023-03-19T08:23:01.532Z,10.60
2023-03-19T08:25:32.510Z,10.85
2023-03-19T08:28:01.164Z,10.77
2023-03-19T08:30:29.228Z,10.85
2023-03-19T08:32:56.984Z,10.50
2023-03-19T08:35:28.298Z,10.80
2023-03-19T08:37:56.631Z,9.98
2023-03-19T08:40:24.885Z,10.40
2023-03-19T08:42:54.235Z,9.20
2023-03-19T08:45:23.142Z,10.63
2023-03-19T08:47:50.974Z,10.80
2023-03-19T08:50:19.241Z,9.18
2023-03-19T08:52:51.225Z,9.70
2023-03-19T08:55:19.171Z,9.50
2023-03-19T08:57:46.844Z,9.35
2023-03-19T09:00:15.679Z,9.65
2023-03-19T09:02:54.418Z,10.20
2023-03-19T09:05:23.315Z,8.77
2023-03-19T09:07:52.262Z,10.05
2023-03-19T09:10:20.046Z,10.20
2023-03-19T09:12:48.636Z,10.38
2023-03-19T09:15:17.349Z,9.50
2023-03-19T09:17:45.509Z,9.55
2023-03-19T09:20:13.246Z,9.38
2023-03-19T09:22:41.071Z,9.77
2023-03-19T09:25:09.393Z,9.80
2023-03-19T09:27:37.306Z,9.80
2023-03-19T09:30:05.798Z,9.52
2023-03-19T09:32:33.540Z,9.95
2023-03-19T09:35:01.270Z,10.23
2023-03-19T09:37:29.069Z,9.25
2023-03-19T09:39:56.724Z,9.35
2023-03-19T09:42:52.823Z,9.90
2023-03-19T09:45:20.887Z,9.43
2023-03-19T09:47:55.253Z,9.05
2023-03-19T09:50:28.885Z,8.90
2023-03-19T09:53:07.915Z,8.48
2023-03-19T09:55:54.091Z,8.02
2023-03-19T09:58:28.573Z,8.75
2023-03-19T10:00:57.802Z,7.78
2023-03-19T10:03:37.196Z,8.23
2023-03-19T10:06:40.369Z,9.18
2023-03-19T10:09:33.596Z,8.10
2023-03-19T10:12:21.340Z,9.18
2023-03-19T10:15:18.352Z,8.35
2023-03-19T10:18:16.860Z,8.25
2023-03-19T10:20:58.637Z,7.78
2023-03-19T10:24:11.155Z,9.00
2023-03-19T10:26:39.102Z,8.25
2023-03-19T10:29:18.509Z,7.95
2023-03-19T10:31:58.868Z,7.05
2023-03-19T10:34:33.621Z,7.05
2023-03-19T10:37:14.899Z,7.15
2023-03-19T10:39:45.475Z,8.10
2023-03-19T10:42:27.422Z,8.07
2023-03-19T10:45:27.357Z,7.07
2023-03-19T10:47:57.316Z,7.55
2023-03-19T10:50:57.131Z,7.32
2023-03-19T10:53:39.119Z,8.27
2023-03-19T10:56:23.112Z,7.93
2023-03-19T10:58:58.831Z,8.82
2023-03-19T11:01:41.653Z,8.25
2023-03-19T11:04:22.252Z,7.70
2023-03-19T11:07:02.889Z,7.88
2023-03-19T11:09:37.092Z,8.02
2023-03-19T11:12:19.904Z,8.43
2023-03-19T11:14:51.822Z,7.85
2023-03-19T11:17:45.716Z,7.35
2023-03-19T11:20:35.671Z,6.63
2023-03-19T11:23:14.841Z,6.53
2023-03-19T11:25:55.308Z,6.75
2023-03-19T11:28:26.719Z,6.80
2023-03-19T11:31:28.912Z,7.10
2023-03-19T11:34:32.207Z,5.70
2023-03-19T11:37:16.890Z,6.68
2023-03-19T11:39:57.116Z,5.65
2023-03-19T11:42:37.117Z,5.10
2023-03-19T11:45:49.334Z,5.05
2023-03-19T11:48:39.920Z,4.47
2023-03-19T11:51:36.378Z,4.15
2023-03-19T11:54:33.300Z,4.50
2023-03-19T11:57:25.537Z,4.95
2023-03-19T12:00:36.670Z,5.18
2023-03-19T12:03:35.425Z,4.80
2023-03-19T12:06:39.964Z,5.03
2023-03-19T12:09:27.824Z,5.07
2023-03-19T12:12:30.345Z,5.90
2023-03-19T12:15:14.954Z,6.63
2023-03-19T12:18:00.748Z,7.10
2023-03-19T12:20:39.790Z,5.15
2023-03-19T12:23:26.663Z,5.57
2023-03-19T12:26:06.990Z,4.95
2023-03-19T12:29:04.657Z,5.32
2023-03-19T12:32:09.663Z,5.53
2023-03-19T12:34:57.788Z,5.38
2023-03-19T12:37:34.308Z,4.85
2023-03-19T12:40:29.549Z,5.22
2023-03-19T12:43:24.967Z,4.70
2023-03-19T12:46:10.898Z,4.43
2023-03-19T12:49:25.771Z,5.05
2023-03-19T12:51:59.776Z,5.18
2023-03-19T12:54:34.817Z,5.57
2023-03-19T12:57:25.760Z,5.95
2023-03-19T13:00:09.744Z,5.13
2023-03-19T13:03:23.144Z,4.90
2023-03-19T13:06:20.540Z,5.82
2023-03-19T13:09:16.416Z,6.88
2023-03-19T13:12:19.433Z,4.90
2023-03-19T13:14:53.358Z,5.20
2023-03-19T13:17:51.513Z,5.50
2023-03-19T13:21:11.540Z,5.80
2023-03-19T13:23:44.055Z,5.07
2023-03-19T13:26:13.784Z,5.72
2023-03-19T13:29:06.300Z,5.80
2023-03-19T13:31:37.205Z,6.32
2023-03-19T13:34:16.948Z,6.05
2023-03-19T13:36:55.997Z,5.88
2023-03-19T13:39:33.009Z,5.45
2023-03-19T13:42:24.190Z,5.93
2023-03-19T13:44:57.066Z,6.05
2023-03-19T13:47:33.886Z,5.35
2023-03-19T13:50:16.263Z,6.13
2023-03-19T13:52:44.834Z,6.07
2023-03-19T13:55:24.645Z,6.20
2023-03-19T13:58:17.519Z,6.32
2023-03-19T14:00:45.373Z,6.82
2023-03-19T14:03:41.916Z,6.18
2023-03-19T14:06:29.511Z,6.10
2023-03-19T14:08:57.428Z,6.68
2023-03-19T14:11:31.092Z,6.90
2023-03-19T14:14:07.405Z,6.72
2023-03-19T14:16:41.991Z,6.82
2023-03-19T14:19:18.644Z,6.18
2023-03-19T14:21:52.194Z,6.43
2023-03-19T14:24:54.496Z,6.93
2023-03-19T14:27:22.816Z,6.82
2023-03-19T14:29:50.965Z,6.78
2023-03-19T14:32:27.351Z,7.75
2023-03-19T14:34:56.352Z,6.40
2023-03-19T14:37:28.740Z,6.82
2023-03-19T14:40:14.663Z,6.63
2023-03-19T14:43:17.186Z,6.65
2023-03-19T14:46:04.356Z,6.07
2023-03-19T14:49:20.568Z,6.50
2023-03-19T14:51:57.653Z,6.50
2023-03-19T14:54:44.937Z,6.63
2023-03-19T14:57:28.635Z,5.60
2023-03-19T14:59:56.903Z,7.03
2023-03-19T15:02:36.033Z,6.28
2023-03-19T15:05:22.784Z,6.05
2023-03-19T15:07:56.942Z,6.70
2023-03-19T15:10:59.310Z,6.30
2023-03-19T15:13:41.746Z,7.00
2023-03-19T15:16:44.188Z,6.47
2023-03-19T15:19:12.992Z,6.70
2023-03-19T15:21:40.796Z,6.65
2023-03-19T15:24:16.310Z,7.10
2023-03-19T15:26:45.953Z,6.85
2023-03-19T15:29:13.820Z,6.60
2023-03-19T15:31:58.396Z,7.28
2023-03-19T15:34:31.687Z,6.88
2023-03-19T15:37:05.331Z,6.00
2023-03-19T15:39:40.626Z,6.95
2023-03-19T15:42:08.986Z,7.43
2023-03-19T15:45:09.672Z,7.35
2023-03-19T15:47:48.255Z,7.00
2023-03-19T15:50:23.303Z,7.57
2023-03-19T15:52:59.071Z,6.88
2023-03-19T15:55:27.376Z,7.53
2023-03-19T15:58:02.883Z,8.90
2023-03-19T16:00:30.662Z,6.53
2023-03-19T16:02:58.499Z,7.30
2023-03-19T16:05:29.733Z,7.03
2023-03-19T16:08:26.720Z,7.35
2023-03-19T16:10:54.704Z,7.70
2023-03-19T16:13:39.044Z,9.27
2023-03-19T16:16:14.585Z,7.55
2023-03-19T16:18:55.731Z,8.23
2023-03-19T16:21:48.380Z,7.80
2023-03-19T16:24:42.101Z,7.72
2023-03-19T16:27:15.333Z,7.80
2023-03-19T16:29:49.302Z,7.78
2023-03-19T16:32:29.261Z,7.15
2023-03-19T16:35:17.137Z,8.07
2023-03-19T16:37:49.549Z,7.90
2023-03-19T16:40:17.467Z,10.57
2023-03-19T16:42:52.579Z,7.28
2023-03-19T16:45:26.583Z,7.95
2023-03-19T16:47:57.879Z,8.48
2023-03-19T16:50:43.082Z,8.23
2023-03-19T16:53:32.882Z,9.05
2023-03-19T16:56:03.514Z,8.68
2023-03-19T16:58:46.711Z,7.93
2023-03-19T17:01:26.015Z,8.45
2023-03-19T17:03:54.124Z,9.52
2023-03-19T17:06:23.034Z,8.30
2023-03-19T17:08:51.112Z,8.43
2023-03-19T17:11:25.433Z,8.45
2023-03-19T17:13:55.389Z,8.73
2023-03-19T17:16:28.654Z,8.52
2023-03-19T17:18:57.387Z,7.90
2023-03-19T17:21:30.102Z,7.43
2023-03-19T17:23:59.455Z,7.13
2023-03-19T17:26:28.813Z,7.63
2023-03-19T17:28:59.667Z,5.93
2023-03-19T17:31:32.093Z,6.18
2023-03-19T17:34:16.667Z,5.40
2023-03-19T17:37:00.320Z,5.28
2023-03-19T17:39:30.023Z,4.95
2023-03-19T17:41:59.019Z,4.80
2023-03-19T17:44:28.305Z,4.22
2023-03-19T17:46:56.812Z,4.80
2023-03-19T17:49:32.867Z,4.35
2023-03-19T17:52:02.103Z,4.10
2023-03-19T17:54:29.796Z,4.10
2023-03-19T17:56:57.577Z,4.13
2023-03-19T17:59:25.796Z,4.10
2023-03-19T18:01:53.620Z,4.43
2023-03-19T18:04:22.470Z,4.28
2023-03-19T18:07:14.954Z,4.07
2023-03-19T18:09:49.848Z,3.70
2023-03-19T18:12:17.691Z,4.18
2023-03-19T18:14:48.873Z,3.85
2023-03-19T18:17:18.071Z,3.95
2023-03-19T18:19:47.557Z,3.67
2023-03-19T18:22:18.815Z,4.57
2023-03-19T18:24:48.878Z,3.85
2023-03-19T18:27:16.555Z,3.58
2023-03-19T18:29:44.295Z,4.13
2023-03-19T18:32:17.726Z,3.40
2023-03-19T18:34:46.362Z,3.40
2023-03-19T18:37:17.618Z,3.40
2023-03-19T18:39:46.348Z,3.47
2023-03-19T18:42:14.739Z,3.65
2023-03-19T18:44:43.205Z,3.53
2023-03-19T18:47:15.604Z,3.33
2023-03-19T18:49:44.968Z,3.50
2023-03-19T18:52:17.224Z,3.45
2023-03-19T18:54:46.915Z,2.95
2023-03-19T18:57:16.460Z,4.00
2023-03-19T18:59:44.546Z,3.40
2023-03-19T19:02:33.598Z,3.47
2023-03-19T19:05:01.678Z,4.30
2023-03-19T19:07:29.548Z,3.95
2023-03-19T19:09:57.375Z,3.38
2023-03-19T19:12:26.526Z,4.40
2023-03-19T19:14:54.401Z,3.95
2023-03-19T19:17:29.276Z,4.20
2023-03-19T19:19:57.864Z,4.43
2023-03-19T19:22:25.548Z,4.40
2023-03-19T19:24:53.347Z,4.55
2023-03-19T19:27:26.262Z,4.20
2023-03-19T19:29:54.657Z,4.40
2023-03-19T19:32:26.116Z,3.90
2023-03-19T19:34:54.265Z,4.43
2023-03-19T19:37:23.522Z,3.83
2023-03-19T19:39:51.975Z,3.47
2023-03-19T19:42:22.005Z,3.67
2023-03-19T19:44:59.160Z,3.70
2023-03-19T19:47:27.838Z,3.47
2023-03-19T19:49:56.611Z,3.10
2023-03-19T19:52:24.338Z,3.47
2023-03-19T19:54:52.123Z,2.80
2023-03-19T19:57:24.561Z,2.95
2023-03-19T19:59:54.240Z,3.20
2023-03-19T20:02:28.810Z,2.70
2023-03-19T20:04:58.441Z,2.60
2023-03-19T20:07:27.122Z,2.75
2023-03-19T20:09:54.952Z,3.17
2023-03-19T20:12:29.530Z,3.35
2023-03-19T20:14:57.958Z,3.10
2023-03-19T20:17:27.193Z,2.72
2023-03-19T20:19:55.301Z,2.75
2023-03-19T20:22:23.035Z,3.08
2023-03-19T20:24:51.794Z,2.90
2023-03-19T20:27:26.355Z,2.90
2023-03-19T20:29:54.204Z,3.50
2023-03-19T20:32:36.312Z,2.80
2023-03-19T20:35:15.712Z,3.03
2023-03-19T20:37:43.933Z,2.60
2023-03-19T20:40:13.752Z,2.90
2023-03-19T20:42:43.605Z,2.45
2023-03-19T20:45:18.752Z,2.78
2023-03-19T20:47:47.606Z,2.85
2023-03-19T20:50:25.726Z,3.30
2023-03-19T20:52:57.029Z,2.92
2023-03-19T20:55:34.952Z,2.95
2023-03-19T20:58:30.676Z,2.38
2023-03-19T21:00:59.620Z,3.40
2023-03-19T21:03:31.007Z,2.75
2023-03-19T21:06:06.048Z,2.63
2023-03-19T21:08:39.369Z,2.97
2023-03-19T21:11:18.178Z,2.92
2023-03-19T21:13:47.990Z,2.85
2023-03-19T21:16:19.765Z,2.63
2023-03-19T21:18:50.762Z,2.45
2023-03-19T21:21:28.036Z,2.75
2023-03-19T21:24:07.915Z,2.88
2023-03-19T21:26:38.879Z,2.33
2023-03-19T21:29:16.036Z,2.33
2023-03-19T21:31:45.110Z,2.63
2023-03-19T21:34:14.682Z,3.13
2023-03-19T21:36:42.411Z,3.25
2023-03-19T21:39:10.783Z,3.20
2023-03-19T21:41:39.018Z,2.60
2023-03-19T21:44:16.277Z,3.22
2023-03-19T21:46:46.673Z,2.50
2023-03-19T21:49:15.515Z,2.83
2023-03-19T21:51:44.099Z,3.10
2023-03-19T21:54:11.974Z,3.08
2023-03-19T21:56:43.156Z,2.58
2023-03-19T21:59:22.684Z,2.78
2023-03-19T22:01:50.958Z,2.60
2023-03-19T22:04:19.359Z,2.75
2023-03-19T22:06:49.023Z,2.90
2023-03-19T22:09:17.363Z,3.17
2023-03-19T22:11:46.350Z,2.97
2023-03-19T22:14:27.403Z,3.00
2023-03-19T22:16:58.888Z,3.22
2023-03-19T22:19:28.266Z,3.15
2023-03-19T22:21:56.221Z,3.30
2023-03-19T22:24:23.953Z,2.67
2023-03-19T22:26:57.871Z,2.95
2023-03-19T22:29:25.923Z,3.20
2023-03-19T22:31:56.061Z,2.85
2023-03-19T22:34:30.307Z,3.13
2023-03-19T22:36:59.581Z,3.15
2023-03-19T22:39:28.054Z,3.78
2023-03-19T22:41:56.131Z,4.15
2023-03-19T22:44:31.350Z,3.88
2023-03-19T22:47:01.600Z,4.47
2023-03-19T22:49:30.012Z,5.28
2023-03-19T22:51:58.672Z,4.82
2023-03-19T22:54:26.799Z,4.90
2023-03-19T22:56:54.506Z,5.63
2023-03-19T22:59:22.895Z,4.43
2023-03-19T23:01:51.038Z,4.60
2023-03-19T23:04:33.455Z,4.75
2023-03-19T23:07:02.965Z,4.30
2023-03-19T23:09:35.746Z,4.70
2023-03-19T23:12:05.112Z,3.90
2023-03-19T23:14:33.368Z,4.30
2023-03-19T23:17:07.356Z,4.45
2023-03-19T23:19:37.002Z,4.40
2023-03-19T23:22:10.333Z,4.13
2023-03-19T23:24:42.267Z,4.95
2023-03-19T23:27:26.054Z,4.43
2023-03-19T23:29:54.172Z,4.88
2023-03-19T23:32:25.128Z,4.55
2023-03-19T23:35:01.644Z,4.18
2023-03-19T23:37:30.420Z,5.05
2023-03-19T23:39:58.339Z,4.63
2023-03-19T23:42:30.041Z,4.47
2023-03-19T23:45:03.392Z,4.97
2023-03-19T23:47:31.371Z,4.65
2023-03-19T23:49:59.109Z,4.88
2023-03-19T23:52:26.886Z,4.13
2023-03-19T23:54:54.566Z,4.50
2023-03-19T23:57:26.471Z,4.47
2023-03-19T23:59:54.639Z,4.20
